createdAt,value
2018-12-18T00:02:41.355Z,20.37
2018-12-18T00:05:15.582Z,18.07
2018-12-18T00:07:44.632Z,16.70
2018-12-18T01:02:37.458Z,16.73
2018-12-18T01:05:06.485Z,19.33
2018-12-18T01:07:35.540Z,19.27
2018-12-18T01:10:04.843Z,16.93
2018-12-18T02:02:37.056Z,20.73
2018-12-18T02:05:06.165Z,21.27
2018-12-18T02:07:35.172Z,20.90
2018-12-18T02:10:04.211Z,19.57
2018-12-18T03:02:38.990Z,20.73
2018-12-18T03:05:08.207Z,21.30
2018-12-18T03:07:37.262Z,21.97
2018-12-18T04:02:40.250Z,24.00
2018-12-18T04:05:09.270Z,23.57
2018-12-18T04:07:38.393Z,22.70
2018-12-18T05:03:02.439Z,20.50
2018-12-18T05:05:31.450Z,20.43
2018-12-18T05:08:00.457Z,19.53
2018-12-18T06:02:39.406Z,18.23
2018-12-18T06:05:08.453Z,20.93
2018-12-18T06:07:37.488Z,21.10
2018-12-18T07:03:04.590Z,29.47
2018-12-18T07:05:33.716Z,30.23
2018-12-18T07:08:02.686Z,38.70
2018-12-18T07:10:31.782Z,29.17
2018-12-18T08:03:15.482Z,24.03
2018-12-18T08:05:59.246Z,21.33
2018-12-18T08:08:28.407Z,37.03
2018-12-18T09:02:40.582Z,43.37
2018-12-18T09:05:09.750Z,44.13
2018-12-18T09:07:38.729Z,45.37
2018-12-18T10:02:41.310Z,29.27
2018-12-18T10:05:10.328Z,25.50
2018-12-18T10:07:39.370Z,25.43
2018-12-18T11:02:42.351Z,23.77
2018-12-18T11:05:11.809Z,23.63
2018-12-18T11:07:40.950Z,39.60
2018-12-18T12:02:42.968Z,14.80
2018-12-18T12:05:11.317Z,16.43
2018-12-18T12:07:44.051Z,17.57
2018-12-18T13:02:39.601Z,15.77
2018-12-18T13:05:08.715Z,15.73
2018-12-18T13:07:37.768Z,16.43
2018-12-18T14:02:37.201Z,17.30
2018-12-18T14:05:06.479Z,18.17
2018-12-18T14:07:35.478Z,18.60
2018-12-18T14:10:05.256Z,18.93
2018-12-18T15:02:37.354Z,17.30
2018-12-18T15:05:06.430Z,16.83
2018-12-18T15:07:35.638Z,16.47
2018-12-18T15:10:04.782Z,18.00
2018-12-18T16:02:43.277Z,15.73
2018-12-18T16:05:13.226Z,15.80
2018-12-18T16:07:42.243Z,16.20
2018-12-18T16:10:11.330Z,17.57
2018-12-18T17:02:50.034Z,21.17
2018-12-18T17:05:19.083Z,23.37
2018-12-18T17:07:48.164Z,19.43
2018-12-18T17:10:17.233Z,27.97
2018-12-18T18:02:37.720Z,19.07
2018-12-18T18:05:06.811Z,17.17
2018-12-18T18:07:36.063Z,19.20
2018-12-18T18:10:05.465Z,17.90
2018-12-18T19:02:46.893Z,17.43
2018-12-18T19:05:23.665Z,19.37
2018-12-18T19:07:56.621Z,19.00
2018-12-18T20:02:39.470Z,21.27
2018-12-18T20:05:08.535Z,22.10
2018-12-18T20:07:37.575Z,26.10
2018-12-18T21:02:37.450Z,34.90
2018-12-18T21:05:06.612Z,35.60
2018-12-18T21:07:35.641Z,25.10
2018-12-18T21:10:05.550Z,38.60
2018-12-18T22:02:47.822Z,23.23
2018-12-18T22:05:16.791Z,17.70
2018-12-18T22:07:45.807Z,27.93
2018-12-18T23:02:37.479Z,21.63
2018-12-18T23:05:08.622Z,22.93
2018-12-18T23:07:37.770Z,19.83
